createdAt,value
2018-04-12T00:00:25.586Z,5.90
2018-04-12T00:02:53.335Z,5.80
2018-04-12T00:05:20.923Z,5.90
2018-04-12T00:07:48.443Z,6.10
2018-04-12T00:10:16.006Z,6.10
2018-04-12T00:12:43.508Z,6.20
2018-04-12T00:15:11.031Z,6.20
2018-04-12T00:17:38.531Z,6.10
2018-04-12T00:20:06.041Z,6.00
2018-04-12T00:22:34.110Z,5.90
2018-04-12T00:25:01.659Z,6.00
2018-04-12T00:27:29.447Z,5.90
2018-04-12T00:29:57.909Z,6.00
2018-04-12T00:32:25.417Z,6.00
2018-04-12T00:34:52.931Z,5.80
2018-04-12T00:37:20.439Z,5.60
2018-04-12T00:39:47.951Z,5.60
2018-04-12T00:42:15.464Z,5.70
2018-04-12T00:44:43.189Z,5.80
2018-04-12T00:47:10.686Z,5.90
2018-04-12T00:49:38.706Z,5.70
2018-04-12T00:52:06.215Z,5.80
2018-04-12T00:54:33.717Z,5.70
2018-04-12T00:57:01.238Z,5.90
2018-04-12T00:59:28.842Z,5.90
2018-04-12T01:01:56.359Z,5.90
2018-04-12T01:04:23.974Z,6.00
2018-04-12T01:06:51.493Z,6.00
2018-04-12T01:09:19.286Z,6.10
2018-04-12T01:11:47.021Z,6.10
2018-04-12T01:14:14.531Z,6.20
2018-04-12T01:16:42.042Z,6.20
2018-04-12T01:19:09.542Z,6.10
2018-04-12T01:21:37.052Z,5.90
2018-04-12T01:24:04.630Z,6.00
2018-04-12T01:26:32.138Z,6.00
2018-04-12T01:28:59.649Z,6.20
2018-04-12T01:31:27.169Z,6.20
2018-04-12T01:33:54.678Z,6.00
2018-04-12T01:36:22.186Z,6.10
2018-04-12T01:38:49.703Z,6.00
2018-04-12T01:41:17.215Z,6.00
2018-04-12T01:43:44.902Z,6.20
2018-04-12T01:46:12.435Z,6.10
2018-04-12T01:48:40.252Z,6.00
2018-04-12T01:51:07.738Z,6.00
2018-04-12T01:53:35.317Z,5.70
2018-04-12T01:56:02.816Z,5.50
2018-04-12T01:58:30.336Z,5.70
2018-04-12T02:00:58.328Z,5.80
2018-04-12T02:03:25.855Z,5.90
2018-04-12T02:05:53.550Z,5.90
2018-04-12T02:08:21.057Z,5.80
2018-04-12T02:10:48.566Z,5.90
2018-04-12T02:13:16.190Z,5.80
2018-04-12T02:15:43.691Z,5.90
2018-04-12T02:18:11.202Z,6.00
2018-04-12T02:20:38.702Z,5.90
2018-04-12T02:23:06.330Z,6.00
2018-04-12T02:25:34.125Z,5.90
2018-04-12T02:28:01.634Z,5.80
2018-04-12T02:30:29.156Z,5.90
2018-04-12T02:32:56.764Z,6.00
2018-04-12T02:35:24.307Z,5.80
2018-04-12T02:37:51.783Z,5.70
2018-04-12T02:40:19.285Z,5.70
2018-04-12T02:42:46.930Z,5.80
2018-04-12T02:45:14.459Z,5.70
2018-04-12T02:47:42.075Z,5.80
2018-04-12T02:50:10.350Z,5.90
2018-04-12T02:52:37.963Z,5.80
2018-04-12T02:55:05.470Z,5.80
2018-04-12T02:57:32.991Z,5.90
2018-04-12T03:00:00.860Z,5.90
2018-04-12T03:02:28.415Z,5.80
2018-04-12T03:04:55.938Z,5.80
2018-04-12T03:07:23.439Z,5.70
2018-04-12T03:09:51.074Z,5.70
2018-04-12T03:12:18.591Z,5.70
2018-04-12T03:14:46.345Z,5.70
2018-04-12T03:17:13.862Z,5.70
2018-04-12T03:19:41.511Z,5.60
2018-04-12T03:22:09.303Z,5.60
2018-04-12T03:24:36.816Z,5.50
2018-04-12T03:27:04.331Z,5.40
2018-04-12T03:29:31.978Z,5.50
2018-04-12T03:31:59.492Z,5.50
2018-04-12T03:34:27.004Z,5.60
2018-04-12T03:36:54.576Z,5.60
2018-04-12T03:39:22.122Z,5.70
2018-04-12T03:41:49.633Z,5.60
2018-04-12T03:44:17.156Z,5.50
2018-04-12T03:46:45.645Z,5.40
2018-04-12T03:49:13.376Z,5.40
2018-04-12T03:51:40.886Z,5.40
2018-04-12T03:54:08.706Z,5.40
2018-04-12T03:56:38.001Z,5.50
2018-04-12T03:59:05.520Z,5.50
2018-04-12T04:01:33.213Z,5.50
2018-04-12T04:04:00.730Z,5.40
2018-04-12T04:06:28.246Z,5.20
2018-04-12T04:08:55.759Z,5.40
2018-04-12T04:11:23.353Z,5.50
2018-04-12T04:13:51.106Z,5.40
2018-04-12T04:16:30.525Z,5.50
2018-04-12T04:19:10.035Z,5.60
2018-04-12T04:21:37.813Z,5.40
2018-04-12T04:24:05.317Z,5.50
2018-04-12T04:26:32.818Z,5.50
2018-04-12T04:29:00.333Z,5.50
2018-04-12T04:31:27.886Z,5.60
2018-04-12T04:33:55.671Z,5.60
2018-04-12T04:36:23.413Z,5.70
2018-04-12T04:38:51.349Z,5.50
2018-04-12T04:41:18.851Z,5.40
2018-04-12T04:43:47.321Z,5.30
2018-04-12T04:46:15.094Z,5.30
2018-04-12T04:48:42.619Z,5.20
2018-04-12T04:51:10.271Z,5.30
2018-04-12T04:53:37.770Z,5.30
2018-04-12T04:56:05.527Z,5.30
2018-04-12T04:58:33.030Z,5.30
2018-04-12T05:01:00.545Z,5.30
2018-04-12T05:03:28.059Z,5.40
2018-04-12T05:05:55.574Z,5.40
2018-04-12T05:08:24.374Z,5.60
2018-04-12T05:10:51.894Z,5.50
2018-04-12T05:13:19.403Z,6.40
2018-04-12T05:15:46.913Z,7.00
2018-04-12T05:18:14.469Z,7.20
2018-04-12T05:20:42.237Z,7.60
2018-04-12T05:23:09.739Z,7.60
2018-04-12T05:25:38.058Z,7.80
2018-04-12T05:28:05.670Z,7.90
2018-04-12T05:30:33.955Z,7.90
2018-04-12T05:33:01.458Z,7.90
2018-04-12T05:35:28.966Z,7.90
2018-04-12T05:37:56.474Z,8.00
2018-04-12T05:40:24.039Z,8.50
2018-04-12T05:42:51.551Z,8.40
2018-04-12T05:45:19.050Z,8.30
2018-04-12T05:47:46.593Z,8.70
2018-04-12T05:50:14.160Z,8.70
2018-04-12T05:52:41.701Z,8.90
2018-04-12T05:55:09.213Z,9.30
2018-04-12T05:57:37.773Z,9.30
2018-04-12T06:00:05.526Z,9.20
2018-04-12T06:02:33.058Z,9.10
2018-04-12T06:05:00.767Z,9.50
2018-04-12T06:07:28.274Z,9.50
2018-04-12T06:09:55.974Z,9.20
2018-04-12T06:12:24.989Z,9.00
2018-04-12T06:14:52.761Z,9.00
2018-04-12T06:17:20.511Z,8.80
2018-04-12T06:19:48.014Z,8.00
2018-04-12T06:22:15.669Z,7.70
2018-04-12T06:24:43.557Z,7.50
2018-04-12T06:27:11.078Z,7.20
2018-04-12T06:29:39.379Z,7.20
2018-04-12T06:32:06.997Z,7.20
2018-04-12T06:34:34.543Z,7.00
2018-04-12T06:37:02.091Z,7.00
2018-04-12T06:39:29.599Z,7.20
2018-04-12T06:41:57.105Z,7.20
2018-04-12T06:44:25.407Z,7.30
2018-04-12T06:46:53.007Z,7.30
2018-04-12T06:49:20.522Z,7.50
2018-04-12T06:51:48.033Z,7.60
2018-04-12T06:54:15.538Z,7.60
2018-04-12T06:56:43.832Z,7.70
2018-04-12T06:59:11.723Z,7.70
2018-04-12T07:01:39.313Z,7.90
2018-04-12T07:04:06.941Z,7.90
2018-04-12T07:06:34.531Z,8.00
2018-04-12T07:09:02.080Z,8.00
2018-04-12T07:11:29.750Z,8.20
2018-04-12T07:13:57.277Z,8.30
2018-04-12T07:16:25.326Z,8.40
2018-04-12T07:18:52.878Z,8.40
2018-04-12T07:21:21.159Z,8.50
2018-04-12T07:23:48.666Z,8.50
2018-04-12T07:26:16.511Z,8.60
2018-04-12T07:28:44.006Z,8.70
2018-04-12T07:31:11.539Z,8.70
2018-04-12T07:33:39.039Z,8.80
2018-04-12T07:36:06.794Z,8.70
2018-04-12T07:38:34.535Z,8.90
2018-04-12T07:41:02.059Z,8.80
2018-04-12T07:43:29.571Z,8.90
2018-04-12T07:45:57.097Z,8.80
2018-04-12T07:48:24.642Z,8.80
2018-04-12T07:50:52.172Z,8.90
2018-04-12T07:53:19.669Z,8.90
2018-04-12T07:55:47.319Z,9.00
2018-04-12T07:58:14.830Z,9.10
2018-04-12T08:00:42.370Z,9.10
2018-04-12T08:03:09.864Z,9.30
2018-04-12T08:05:38.166Z,9.60
2018-04-12T08:08:05.684Z,9.60
2018-04-12T08:10:33.282Z,9.70
2018-04-12T08:13:01.073Z,9.80
2018-04-12T08:15:28.578Z,9.80
2018-04-12T08:17:56.144Z,9.90
2018-04-12T08:20:24.406Z,10.10
2018-04-12T08:22:52.132Z,10.10
2018-04-12T08:25:19.903Z,10.10
2018-04-12T08:27:47.654Z,10.20
2018-04-12T08:30:15.216Z,10.20
2018-04-12T08:32:42.854Z,10.40
2018-04-12T08:35:10.362Z,10.50
2018-04-12T08:37:38.094Z,10.70
2018-04-12T08:40:05.616Z,10.60
2018-04-12T08:42:33.453Z,10.60
2018-04-12T08:45:01.738Z,10.80
2018-04-12T08:47:29.246Z,10.80
2018-04-12T08:49:56.758Z,10.90
2018-04-12T08:52:24.356Z,10.90
2018-04-12T08:54:51.874Z,10.90
2018-04-12T08:57:19.419Z,10.90
2018-04-12T08:59:48.417Z,11.20
2018-04-12T09:02:16.963Z,11.20
2018-04-12T09:04:44.480Z,11.20
2018-04-12T09:07:12.360Z,11.30
2018-04-12T09:09:39.853Z,11.10
2018-04-12T09:12:07.384Z,11.40
2018-04-12T09:14:34.896Z,11.40
2018-04-12T09:17:02.627Z,11.60
2018-04-12T09:19:30.158Z,11.60
2018-04-12T09:21:57.865Z,11.80
2018-04-12T09:24:25.391Z,11.70
2018-04-12T09:26:52.906Z,11.70
2018-04-12T09:29:21.186Z,11.80
2018-04-12T09:31:48.706Z,11.80
2018-04-12T09:34:16.230Z,12.00
2018-04-12T09:36:43.831Z,12.00
2018-04-12T09:39:11.355Z,12.20
2018-04-12T09:41:39.003Z,12.30
2018-04-12T09:44:06.928Z,12.40
2018-04-12T09:46:34.552Z,12.40
2018-04-12T09:49:02.337Z,12.30
2018-04-12T09:51:30.028Z,12.20
2018-04-12T09:53:57.549Z,12.30
2018-04-12T09:56:25.094Z,12.40
2018-04-12T09:58:53.421Z,12.80
2018-04-12T10:01:20.958Z,12.80
2018-04-12T10:03:48.618Z,12.80
2018-04-12T10:06:22.173Z,12.80
2018-04-12T10:08:55.240Z,12.70
2018-04-12T10:11:22.781Z,12.80
2018-04-12T10:13:51.093Z,12.80
2018-04-12T10:16:18.773Z,12.80
2018-04-12T10:18:46.304Z,12.80
2018-04-12T10:21:14.012Z,12.80
2018-04-12T10:23:41.546Z,12.70
2018-04-12T10:26:09.057Z,12.70
2018-04-12T10:28:37.846Z,12.70
2018-04-12T10:31:05.350Z,12.70
2018-04-12T10:33:32.874Z,12.90
2018-04-12T10:36:00.393Z,12.80
2018-04-12T10:38:28.100Z,12.80
2018-04-12T10:40:55.610Z,12.80
2018-04-12T10:43:23.255Z,12.80
2018-04-12T10:45:50.766Z,12.90
2018-04-12T10:48:18.298Z,13.00
2018-04-12T10:50:45.810Z,13.20
2018-04-12T10:53:13.322Z,13.30
2018-04-12T10:55:40.871Z,13.30
2018-04-12T10:58:08.377Z,13.20
2018-04-12T11:00:35.899Z,13.30
2018-04-12T11:03:04.200Z,13.40
2018-04-12T11:05:31.745Z,13.40
2018-04-12T11:08:00.048Z,13.70
2018-04-12T11:10:27.574Z,13.70
2018-04-12T11:12:55.866Z,13.80
2018-04-12T11:15:23.377Z,13.80
2018-04-12T11:17:51.035Z,13.80
2018-04-12T11:20:18.544Z,13.90
2018-04-12T11:22:46.254Z,13.90
2018-04-12T11:25:13.791Z,13.80
2018-04-12T11:27:41.306Z,13.70
2018-04-12T11:30:08.834Z,13.80
2018-04-12T11:32:36.386Z,13.90
2018-04-12T11:35:03.910Z,13.90
2018-04-12T11:37:31.597Z,14.00
2018-04-12T11:39:59.113Z,14.00
2018-04-12T11:42:27.547Z,14.20
2018-04-12T11:44:55.196Z,14.50
2018-04-12T11:47:23.135Z,14.60
2018-04-12T11:49:50.657Z,14.80
2018-04-12T11:52:18.183Z,14.80
2018-04-12T11:54:45.797Z,14.80
2018-04-12T11:57:13.403Z,14.70
2018-04-12T11:59:40.943Z,14.80
2018-04-12T12:02:08.446Z,14.70
2018-04-12T12:04:36.750Z,14.50
2018-04-12T12:07:04.323Z,14.50
2018-04-12T12:09:31.839Z,14.60
2018-04-12T12:12:00.116Z,14.50
2018-04-12T12:14:27.622Z,14.50
2018-04-12T12:16:55.135Z,14.50
2018-04-12T12:19:22.662Z,14.60
2018-04-12T12:21:50.177Z,14.70
2018-04-12T12:24:17.815Z,14.60
2018-04-12T12:26:45.334Z,14.70
2018-04-12T12:29:13.123Z,14.70
2018-04-12T12:31:40.629Z,14.80
2018-04-12T12:34:08.354Z,14.70
2018-04-12T12:36:36.083Z,14.80
2018-04-12T12:39:03.622Z,14.70
2018-04-12T12:41:31.329Z,14.70
2018-04-12T12:43:58.854Z,14.70
2018-04-12T12:46:26.498Z,14.70
2018-04-12T12:48:54.286Z,14.40
2018-04-12T12:51:21.834Z,14.40
2018-04-12T12:53:49.339Z,14.50
2018-04-12T12:56:17.628Z,14.20
2018-04-12T12:58:45.145Z,14.10
2018-04-12T13:01:12.710Z,14.10
2018-04-12T13:03:40.258Z,14.20
2018-04-12T13:06:07.774Z,14.10
2018-04-12T13:08:35.487Z,14.20
2018-04-12T13:11:03.027Z,14.20
2018-04-12T13:13:30.541Z,14.30
2018-04-12T13:15:58.062Z,14.40
2018-04-12T13:18:25.582Z,14.30
2018-04-12T13:20:53.103Z,14.30
2018-04-12T13:23:20.633Z,14.30
2018-04-12T13:25:48.296Z,14.20
2018-04-12T13:28:15.815Z,14.00
2018-04-12T13:30:44.422Z,14.10
2018-04-12T13:33:11.962Z,14.00
2018-04-12T13:35:39.837Z,14.00
2018-04-12T13:38:07.500Z,14.10
2018-04-12T13:40:35.032Z,14.20
2018-04-12T13:43:02.602Z,14.30
2018-04-12T13:45:30.119Z,14.20
2018-04-12T13:47:57.632Z,14.30
2018-04-12T13:50:25.175Z,14.60
2018-04-12T13:52:52.914Z,14.40
2018-04-12T13:55:20.438Z,14.40
2018-04-12T13:57:47.975Z,14.50
2018-04-12T14:00:15.738Z,14.50
2018-04-12T14:02:43.271Z,14.50
2018-04-12T14:05:10.966Z,14.60
2018-04-12T14:07:38.499Z,14.70
2018-04-12T14:10:06.182Z,14.60
2018-04-12T14:12:33.953Z,14.60
2018-04-12T14:15:01.472Z,14.60
2018-04-12T14:17:29.602Z,14.60
2018-04-12T14:19:57.245Z,14.60
2018-04-12T14:22:24.776Z,14.60
2018-04-12T14:24:52.459Z,14.80
2018-04-12T14:27:19.976Z,15.00
2018-04-12T14:29:47.616Z,15.20
2018-04-12T14:32:15.136Z,15.40
2018-04-12T14:34:43.072Z,15.80
2018-04-12T14:37:10.643Z,16.10
2018-04-12T14:39:38.157Z,16.00
2018-04-12T14:42:05.685Z,16.20
2018-04-12T14:44:33.205Z,16.40
2018-04-12T14:47:00.718Z,16.50
2018-04-12T14:49:28.234Z,16.50
2018-04-12T14:51:55.753Z,16.50
2018-04-12T14:54:23.447Z,16.50
2018-04-12T14:56:51.235Z,16.20
2018-04-12T14:59:18.996Z,16.30
2018-04-12T15:01:46.523Z,16.20
2018-04-12T15:04:14.017Z,16.20
2018-04-12T15:06:42.057Z,16.00
2018-04-12T15:09:09.750Z,15.90
2018-04-12T15:11:37.278Z,15.70
2018-04-12T15:14:04.790Z,15.60
2018-04-12T15:16:33.083Z,15.60
2018-04-12T15:19:00.801Z,15.60
2018-04-12T15:21:28.312Z,15.80
2018-04-12T15:23:55.823Z,15.90
2018-04-12T15:26:23.355Z,16.20
2018-04-12T15:28:50.930Z,16.40
2018-04-12T15:31:18.694Z,16.50
2018-04-12T15:33:46.453Z,16.50
2018-04-12T15:36:13.991Z,16.40
2018-04-12T15:38:41.689Z,16.40
2018-04-12T15:41:09.312Z,16.40
2018-04-12T15:43:36.820Z,16.40
2018-04-12T15:46:04.349Z,16.50
2018-04-12T15:48:31.997Z,16.50
2018-04-12T15:50:59.550Z,16.80
2018-04-12T15:53:27.062Z,17.10
2018-04-12T15:55:54.590Z,17.00
2018-04-12T15:58:22.327Z,16.80
2018-04-12T16:00:50.076Z,17.00
2018-04-12T16:03:17.578Z,17.60
2018-04-12T16:05:45.093Z,18.00
2018-04-12T16:08:12.598Z,18.40
2018-04-12T16:10:40.146Z,17.90
2018-04-12T16:13:07.658Z,17.50
2018-04-12T16:15:35.195Z,17.30
2018-04-12T16:18:03.755Z,16.90
2018-04-12T16:20:31.304Z,16.90
2018-04-12T16:23:00.198Z,16.70
2018-04-12T16:25:27.714Z,16.50
2018-04-12T16:27:55.253Z,16.40
2018-04-12T16:30:23.527Z,16.40
2018-04-12T16:32:51.933Z,16.40
2018-04-12T16:35:19.624Z,16.10
2018-04-12T16:37:47.403Z,16.00
2018-04-12T16:40:15.155Z,15.80
2018-04-12T16:42:42.685Z,15.80
2018-04-12T16:45:10.204Z,15.70
2018-04-12T16:47:37.720Z,15.60
2018-04-12T16:50:05.239Z,15.50
2018-04-12T16:52:32.762Z,15.50
2018-04-12T16:55:00.506Z,15.50
2018-04-12T16:57:28.484Z,15.50
2018-04-12T16:59:55.999Z,15.40
2018-04-12T17:02:23.806Z,15.00
2018-04-12T17:04:51.322Z,15.10
2018-04-12T17:07:19.012Z,15.00
2018-04-12T17:09:46.539Z,14.80
2018-04-12T17:12:14.251Z,14.40
2018-04-12T17:14:41.725Z,14.30
2018-04-12T17:17:09.306Z,14.20
2018-04-12T17:19:37.586Z,14.00
2018-04-12T17:22:05.122Z,14.00
2018-04-12T17:24:33.390Z,13.80
2018-04-12T17:27:01.129Z,13.80
2018-04-12T17:29:28.657Z,13.70
2018-04-12T17:31:56.346Z,13.40
2018-04-12T17:34:23.854Z,13.50
2018-04-12T17:36:51.566Z,13.40
2018-04-12T17:39:19.220Z,13.50
2018-04-12T17:41:46.735Z,13.30
2018-04-12T17:44:14.560Z,13.20
2018-04-12T17:46:42.087Z,13.00
2018-04-12T17:49:09.786Z,12.90
2018-04-12T17:51:37.547Z,12.70
2018-04-12T17:54:05.453Z,12.80
2018-04-12T17:56:33.770Z,12.70
2018-04-12T17:59:01.298Z,12.60
2018-04-12T18:01:28.810Z,12.70
2018-04-12T18:03:56.358Z,12.60
2018-04-12T18:06:23.937Z,12.40
2018-04-12T18:08:52.211Z,12.20
2018-04-12T18:11:19.722Z,12.10
2018-04-12T18:13:47.247Z,12.00
2018-04-12T18:16:15.563Z,11.60
2018-04-12T18:18:43.654Z,11.60
2018-04-12T18:21:11.180Z,11.60
2018-04-12T18:23:38.792Z,11.50
2018-04-12T18:26:06.307Z,11.60
2018-04-12T18:28:33.834Z,11.50
2018-04-12T18:31:02.139Z,11.20
2018-04-12T18:33:29.979Z,11.20
2018-04-12T18:35:58.960Z,11.20
2018-04-12T18:38:27.257Z,11.20
2018-04-12T18:40:55.454Z,11.20
2018-04-12T18:43:23.003Z,11.10
2018-04-12T18:45:50.786Z,11.00
2018-04-12T18:48:18.320Z,11.10
2018-04-12T18:50:45.819Z,11.40
2018-04-12T18:53:13.349Z,11.70
2018-04-12T18:55:40.873Z,11.80
2018-04-12T18:58:08.394Z,12.00
2018-04-12T19:00:36.556Z,12.00
2018-04-12T19:03:04.074Z,11.90
2018-04-12T19:05:31.619Z,11.80
2018-04-12T19:07:59.170Z,11.30
2018-04-12T19:10:26.868Z,11.30
2018-04-12T19:12:54.809Z,10.90
2018-04-12T19:15:23.073Z,10.80
2018-04-12T19:17:50.586Z,10.70
2018-04-12T19:20:18.247Z,10.60
2018-04-12T19:22:45.770Z,10.30
2018-04-12T19:25:13.308Z,10.40
2018-04-12T19:27:40.914Z,10.70
2018-04-12T19:30:08.371Z,10.40
2018-04-12T19:32:36.137Z,10.40
2018-04-12T19:35:03.628Z,10.50
2018-04-12T19:37:31.148Z,10.60
2018-04-12T19:39:58.664Z,10.40
2018-04-12T19:42:26.996Z,10.50
2018-04-12T19:44:54.513Z,10.50
2018-04-12T19:47:22.198Z,10.40
2018-04-12T19:49:49.721Z,10.30
2018-04-12T19:52:18.099Z,10.40
2018-04-12T19:54:46.374Z,10.40
2018-04-12T19:57:13.894Z,10.40
2018-04-12T19:59:41.909Z,10.30
2018-04-12T20:02:09.653Z,10.40
2018-04-12T20:04:37.168Z,10.50
2018-04-12T20:07:04.873Z,10.70
2018-04-12T20:09:32.374Z,10.60
2018-04-12T20:12:00.033Z,10.60
2018-04-12T20:14:27.830Z,10.40
2018-04-12T20:16:55.339Z,10.50
2018-04-12T20:19:23.012Z,10.60
2018-04-12T20:21:50.536Z,10.50
2018-04-12T20:24:18.049Z,10.40
2018-04-12T20:26:45.554Z,10.20
2018-04-12T20:29:14.106Z,10.20
2018-04-12T20:31:41.645Z,10.20
2018-04-12T20:34:09.184Z,10.30
2018-04-12T20:36:37.478Z,10.20
2018-04-12T20:39:05.034Z,10.20
2018-04-12T20:41:32.566Z,10.40
2018-04-12T20:44:00.079Z,10.30
2018-04-12T20:46:27.615Z,10.30
2018-04-12T20:48:55.286Z,10.30
2018-04-12T20:51:23.050Z,10.20
2018-04-12T20:53:50.588Z,10.20
2018-04-12T20:56:18.088Z,10.20
2018-04-12T20:58:45.621Z,10.10
2018-04-12T21:01:13.134Z,10.10
2018-04-12T21:03:40.673Z,10.10
2018-04-12T21:06:08.191Z,10.20
2018-04-12T21:08:35.706Z,10.20
2018-04-12T21:11:03.982Z,10.30
2018-04-12T21:13:31.846Z,10.30
2018-04-12T21:15:59.478Z,10.20
2018-04-12T21:18:27.002Z,10.20
2018-04-12T21:20:54.518Z,10.40
2018-04-12T21:23:22.789Z,10.20
2018-04-12T21:25:50.318Z,10.20
2018-04-12T21:28:18.059Z,10.30
2018-04-12T21:30:45.574Z,10.20
2018-04-12T21:33:13.194Z,10.20
2018-04-12T21:35:42.254Z,10.20
2018-04-12T21:38:09.754Z,10.20
2018-04-12T21:40:37.331Z,10.10
2018-04-12T21:43:04.831Z,10.20
2018-04-12T21:45:32.617Z,10.00
2018-04-12T21:48:00.383Z,10.00
2018-04-12T21:50:27.902Z,10.00
2018-04-12T21:52:55.515Z,10.00
2018-04-12T21:55:23.035Z,10.00
2018-04-12T21:57:51.380Z,10.10
2018-04-12T22:00:19.199Z,10.30
2018-04-12T22:02:46.703Z,10.50
2018-04-12T22:05:14.423Z,10.50
2018-04-12T22:07:41.930Z,10.30
2018-04-12T22:10:09.440Z,10.30
2018-04-12T22:12:36.950Z,10.30
2018-04-12T22:15:04.869Z,10.20
2018-04-12T22:17:32.390Z,10.20
2018-04-12T22:19:59.902Z,10.20
2018-04-12T22:22:27.421Z,10.20
2018-04-12T22:24:55.082Z,10.20
2018-04-12T22:27:22.560Z,10.20
2018-04-12T22:29:50.201Z,10.20
2018-04-12T22:32:17.706Z,10.30
2018-04-12T22:34:45.225Z,10.30
2018-04-12T22:37:12.735Z,10.40
2018-04-12T22:39:41.022Z,10.10
2018-04-12T22:42:09.106Z,10.10
2018-04-12T22:44:36.798Z,10.20
2018-04-12T22:47:04.511Z,10.10
2018-04-12T22:49:32.034Z,10.00
2018-04-12T22:51:59.778Z,9.90
2018-04-12T22:54:27.298Z,10.10
2018-04-12T22:56:54.818Z,10.00
2018-04-12T22:59:22.458Z,10.00
2018-04-12T23:01:49.966Z,10.00
2018-04-12T23:04:17.471Z,9.90
2018-04-12T23:06:45.150Z,9.80
2018-04-12T23:09:12.654Z,9.70
2018-04-12T23:11:40.355Z,9.60
2018-04-12T23:14:07.861Z,9.70
2018-04-12T23:16:36.089Z,9.50
2018-04-12T23:19:03.606Z,9.60
2018-04-12T23:21:31.409Z,9.70
2018-04-12T23:23:58.913Z,9.70
2018-04-12T23:26:26.602Z,9.60
2018-04-12T23:28:54.394Z,9.60
2018-04-12T23:31:21.922Z,9.80
2018-04-12T23:33:49.574Z,9.80
2018-04-12T23:36:17.095Z,9.80
2018-04-12T23:38:44.598Z,9.70
2018-04-12T23:41:12.113Z,9.60
2018-04-12T23:43:39.753Z,9.50
2018-04-12T23:46:07.519Z,9.60
2018-04-12T23:48:35.286Z,9.60
2018-04-12T23:51:02.803Z,9.60
2018-04-12T23:53:30.505Z,9.70
2018-04-12T23:55:58.013Z,9.70
2018-04-12T23:58:25.518Z,9.70
